Terminal Aerodrome Forecast
Issued by NWS

Home | Current Version | Previous Version | Text Only | Print | Product List | Glossary On
Versions: 1 2 3 4 5 6 7 8 9 10 11 12 13 14 15 16 17 18 19 20 21 22 23 24 25 26 27 28 29 30 31 32
000
FTUS44 KMOB 031735
TAFBFM
TAF
KBFM 031735Z 0318/0418 04005KT P6SM SCT030 SCT200
     FM032000 14006KT P6SM VCTS SCT030CB SCT250
     FM040000 23004KT P6SM SCT250=

USA.gov is the U.S. government's official web portal to all federal, state and local government web resources and services.